createdAt,value
2018-11-25T00:00:48.910Z,7.90
2018-11-25T00:05:58.357Z,7.80
2018-11-25T00:11:07.693Z,7.80
2018-11-25T00:16:17.047Z,7.80
2018-11-25T00:21:26.451Z,7.80
2018-11-25T00:26:36.138Z,7.80
2018-11-25T00:31:45.784Z,7.90
2018-11-25T00:36:55.114Z,7.80
2018-11-25T00:42:04.620Z,7.90
2018-11-25T00:47:13.965Z,7.90
2018-11-25T00:52:23.391Z,7.90
2018-11-25T00:57:32.888Z,7.90
2018-11-25T01:02:42.268Z,7.80
2018-11-25T01:07:51.852Z,7.80
2018-11-25T01:13:01.241Z,7.90
2018-11-25T01:18:10.584Z,7.90
2018-11-25T01:23:20.089Z,7.90
2018-11-25T01:28:29.447Z,7.90
2018-11-25T01:33:38.756Z,7.90
2018-11-25T01:38:48.178Z,7.90
2018-11-25T01:43:57.552Z,7.90
2018-11-25T01:49:06.900Z,7.90
2018-11-25T01:54:16.504Z,7.90
2018-11-25T01:59:25.808Z,7.90
2018-11-25T02:04:35.261Z,7.90
2018-11-25T02:09:44.636Z,7.90
2018-11-25T02:14:54.255Z,7.80
2018-11-25T02:20:08.236Z,7.70
2018-11-25T02:25:17.777Z,7.70
2018-11-25T02:30:27.169Z,7.80
2018-11-25T02:35:36.521Z,7.90
2018-11-25T02:40:46.059Z,7.90
2018-11-25T02:45:55.384Z,7.80
2018-11-25T02:51:04.723Z,7.90
2018-11-25T02:56:14.216Z,7.90
2018-11-25T03:01:23.569Z,7.90
2018-11-25T03:06:32.945Z,7.90
2018-11-25T03:11:42.338Z,7.90
2018-11-25T03:16:51.882Z,7.90
2018-11-25T03:22:01.253Z,7.90
2018-11-25T03:27:10.626Z,7.90
2018-11-25T03:32:20.217Z,7.90
2018-11-25T03:37:29.594Z,7.90
2018-11-25T03:42:39.222Z,7.90
2018-11-25T03:47:48.806Z,7.90
2018-11-25T03:52:58.440Z,7.90
2018-11-25T03:58:07.796Z,7.90
2018-11-25T04:03:17.317Z,7.90
2018-11-25T04:08:26.917Z,7.90
2018-11-25T04:13:36.229Z,7.90
2018-11-25T04:18:45.567Z,7.90
2018-11-25T04:23:54.974Z,7.90
2018-11-25T04:29:04.681Z,7.80
2018-11-25T04:34:14.116Z,7.90
2018-11-25T04:39:23.746Z,7.80
2018-11-25T04:44:33.084Z,7.80
2018-11-25T04:49:42.409Z,7.80
2018-11-25T04:54:51.765Z,7.90
2018-11-25T05:00:01.097Z,7.90
2018-11-25T05:05:11.747Z,7.80
2018-11-25T05:10:21.232Z,7.90
2018-11-25T05:15:30.558Z,7.90
2018-11-25T05:20:39.924Z,7.90
2018-11-25T05:25:49.293Z,7.90
2018-11-25T05:30:58.628Z,7.90
2018-11-25T05:36:07.994Z,7.90
2018-11-25T05:41:17.420Z,7.90
2018-11-25T05:46:26.784Z,7.80
2018-11-25T05:51:36.136Z,7.80
2018-11-25T05:56:45.554Z,7.70
2018-11-25T06:01:55.198Z,7.80
2018-11-25T06:07:04.857Z,7.80
2018-11-25T06:12:14.225Z,7.80
2018-11-25T06:17:23.752Z,7.70
2018-11-25T06:22:33.171Z,7.60
2018-11-25T06:27:42.609Z,7.70
2018-11-25T06:32:51.928Z,7.60
2018-11-25T06:38:01.288Z,7.70
2018-11-25T06:43:10.652Z,7.80
2018-11-25T06:48:20.045Z,7.80
2018-11-25T06:53:29.410Z,7.80
2018-11-25T06:58:39.077Z,7.80
2018-11-25T07:03:48.496Z,7.80
2018-11-25T07:08:57.822Z,7.80
2018-11-25T07:14:07.258Z,7.90
2018-11-25T07:19:16.618Z,7.80
2018-11-25T07:24:26.144Z,7.80
2018-11-25T07:29:35.533Z,7.60
2018-11-25T07:34:45.196Z,7.70
2018-11-25T07:39:54.720Z,7.60
2018-11-25T07:45:04.565Z,7.80
2018-11-25T07:50:14.324Z,7.90
2018-11-25T07:55:23.468Z,7.90
2018-11-25T08:00:32.764Z,7.80
2018-11-25T08:05:42.101Z,7.80
2018-11-25T08:10:51.615Z,7.90
2018-11-25T08:16:01.659Z,7.70
2018-11-25T08:21:11.109Z,7.90
2018-11-25T08:26:20.746Z,7.90
2018-11-25T08:31:30.349Z,8.00
2018-11-25T08:36:39.754Z,8.10
2018-11-25T08:41:49.086Z,8.10
2018-11-25T08:46:58.465Z,8.10
2018-11-25T08:52:07.918Z,8.10
2018-11-25T08:57:17.655Z,8.10
2018-11-25T09:02:27.098Z,8.00
2018-11-25T09:07:36.536Z,8.10
2018-11-25T09:12:47.331Z,8.10
2018-11-25T09:17:56.793Z,8.00
2018-11-25T09:23:06.324Z,7.90
2018-11-25T09:28:15.728Z,8.10
2018-11-25T09:33:25.346Z,7.70
2018-11-25T09:38:34.747Z,7.60
2018-11-25T09:43:44.328Z,7.50
2018-11-25T09:48:53.912Z,7.70
2018-11-25T09:54:03.517Z,7.90
2018-11-25T09:59:12.836Z,7.80
2018-11-25T10:04:22.484Z,8.00
2018-11-25T10:09:31.919Z,8.10
2018-11-25T10:14:35.786Z,8.20
2018-11-25T10:19:45.131Z,8.20
2018-11-25T10:24:54.814Z,8.20
2018-11-25T10:30:05.169Z,8.20
2018-11-25T10:35:14.690Z,8.30
2018-11-25T10:40:24.951Z,8.40
2018-11-25T10:45:34.753Z,8.10
2018-11-25T10:50:50.958Z,7.70
2018-11-25T10:55:54.157Z,7.50
2018-11-25T11:01:08.970Z,7.20
2018-11-25T11:06:24.057Z,7.50
2018-11-25T11:11:33.702Z,7.80
2018-11-25T11:16:43.293Z,7.70
2018-11-25T11:21:52.813Z,8.00
2018-11-25T11:27:02.177Z,8.20
2018-11-25T11:32:11.605Z,8.30
2018-11-25T11:37:20.916Z,8.20
2018-11-25T11:42:30.253Z,8.10
2018-11-25T11:47:39.652Z,8.00
2018-11-25T11:52:49.024Z,7.80
2018-11-25T11:57:58.446Z,8.00
2018-11-25T12:03:08.874Z,8.10
2018-11-25T12:08:18.325Z,8.30
2018-11-25T12:13:27.657Z,8.30
2018-11-25T12:18:37.001Z,8.20
2018-11-25T12:23:46.505Z,8.30
2018-11-25T12:28:55.887Z,8.30
2018-11-25T12:34:05.445Z,8.40
2018-11-25T12:39:14.825Z,8.50
2018-11-25T12:44:29.161Z,8.40
2018-11-25T12:49:34.069Z,8.40
2018-11-25T12:54:43.502Z,8.40
2018-11-25T12:59:53.071Z,8.40
2018-11-25T13:05:02.412Z,4.80
2018-11-25T13:10:11.779Z,7.90
2018-11-25T13:15:21.125Z,8.20
2018-11-25T13:20:30.818Z,8.00
2018-11-25T13:25:40.421Z,7.70
2018-11-25T13:30:49.769Z,7.80
2018-11-25T13:35:59.218Z,7.70
2018-11-25T13:41:08.518Z,7.40
2018-11-25T13:46:17.929Z,7.50
2018-11-25T13:51:27.494Z,7.20
2018-11-25T13:56:37.092Z,7.30
2018-11-25T14:01:46.672Z,7.30
2018-11-25T14:06:55.977Z,7.40
2018-11-25T14:12:05.504Z,7.40
2018-11-25T14:17:14.930Z,7.50
2018-11-25T14:22:24.466Z,7.10
2018-11-25T14:27:34.120Z,6.90
2018-11-25T14:32:43.514Z,7.10
2018-11-25T14:37:53.157Z,7.20
2018-11-25T14:43:02.538Z,6.90
2018-11-25T14:48:11.911Z,7.00
2018-11-25T14:53:21.530Z,7.00
2018-11-25T14:58:30.875Z,6.70
2018-11-25T15:03:40.442Z,7.00
2018-11-25T15:08:50.114Z,6.80
2018-11-25T15:14:00.028Z,6.70
2018-11-25T15:19:09.511Z,6.60
2018-11-25T15:24:18.872Z,6.60
2018-11-25T15:29:28.494Z,6.10
2018-11-25T15:34:37.964Z,6.60
2018-11-25T15:39:47.416Z,6.50
2018-11-25T15:44:56.955Z,6.60
2018-11-25T15:50:15.138Z,6.10
2018-11-25T15:55:24.533Z,5.90
2018-11-25T16:00:33.914Z,6.10
2018-11-25T16:05:46.542Z,6.60
2018-11-25T16:10:55.995Z,6.30
2018-11-25T16:16:05.581Z,6.00
2018-11-25T16:21:15.063Z,6.00
2018-11-25T16:26:26.956Z,6.10
2018-11-25T16:31:36.407Z,6.50
2018-11-25T16:36:45.880Z,6.40
2018-11-25T16:41:55.322Z,6.30
2018-11-25T16:47:04.687Z,6.00
2018-11-25T16:52:14.087Z,5.40
2018-11-25T16:57:23.426Z,5.60
2018-11-25T17:02:32.740Z,5.60
2018-11-25T17:07:42.552Z,5.30
2018-11-25T17:12:51.885Z,5.40
2018-11-25T17:18:01.599Z,5.50
2018-11-25T17:23:11.254Z,5.50
2018-11-25T17:28:20.835Z,5.40
2018-11-25T17:33:30.173Z,5.30
2018-11-25T17:38:39.545Z,5.60
2018-11-25T17:43:49.136Z,5.70
2018-11-25T17:48:58.575Z,5.90
2018-11-25T17:54:08.103Z,6.00
2018-11-25T17:59:17.623Z,6.10
2018-11-25T18:04:27.029Z,6.10
2018-11-25T18:09:36.394Z,6.00
2018-11-25T18:14:45.745Z,6.40
2018-11-25T18:19:55.281Z,6.10
2018-11-25T18:25:04.876Z,5.80
2018-11-25T18:30:15.939Z,6.00
2018-11-25T18:35:25.276Z,6.10
2018-11-25T18:40:34.671Z,5.60
2018-11-25T18:45:44.107Z,5.50
2018-11-25T18:50:53.696Z,5.80
2018-11-25T18:56:03.032Z,5.40
2018-11-25T19:01:32.877Z,5.40
2018-11-25T19:06:43.338Z,5.30
2018-11-25T19:11:52.690Z,5.30
2018-11-25T19:16:56.610Z,5.20
2018-11-25T19:22:06.186Z,5.10
2018-11-25T19:27:15.885Z,5.30
2018-11-25T19:32:25.316Z,5.10
2018-11-25T19:37:34.810Z,5.10
2018-11-25T19:42:44.518Z,5.40
2018-11-25T19:47:48.618Z,5.50
2018-11-25T19:52:58.105Z,5.20
2018-11-25T19:58:07.794Z,5.60
2018-11-25T20:03:17.207Z,5.60
2018-11-25T20:08:26.825Z,5.40
2018-11-25T20:13:36.399Z,5.60
2018-11-25T20:18:45.930Z,5.80
2018-11-25T20:23:55.341Z,5.50
2018-11-25T20:29:05.296Z,5.70
2018-11-25T20:34:14.828Z,5.60
2018-11-25T20:39:30.627Z,5.90
2018-11-25T20:44:40.488Z,5.80
2018-11-25T20:49:50.194Z,5.70
2018-11-25T20:54:59.820Z,5.70
2018-11-25T21:00:17.439Z,2.20
2018-11-25T21:05:26.965Z,5.80
2018-11-25T21:10:37.501Z,5.70
2018-11-25T21:15:47.048Z,6.00
2018-11-25T21:20:56.612Z,6.30
2018-11-25T21:26:06.240Z,6.10
2018-11-25T21:31:16.901Z,5.80
2018-11-25T21:36:26.326Z,5.80
2018-11-25T21:41:35.846Z,6.00
2018-11-25T21:46:45.561Z,6.20
2018-11-25T21:51:55.042Z,6.10
2018-11-25T21:57:04.470Z,5.90
2018-11-25T22:02:14.080Z,5.70
2018-11-25T22:07:23.533Z,6.00
2018-11-25T22:12:32.925Z,6.00
2018-11-25T22:17:42.630Z,6.30
2018-11-25T22:22:52.382Z,6.30
2018-11-25T22:28:01.844Z,6.20
2018-11-25T22:33:11.504Z,6.50
2018-11-25T22:38:21.129Z,6.50
2018-11-25T22:43:30.500Z,6.30
2018-11-25T22:48:40.193Z,6.30
2018-11-25T22:53:49.780Z,6.30
2018-11-25T22:58:59.084Z,6.40
2018-11-25T23:04:19.897Z,6.40
2018-11-25T23:09:29.565Z,6.40
2018-11-25T23:14:39.013Z,6.20
2018-11-25T23:19:48.414Z,6.30
2018-11-25T23:24:58.045Z,6.50
2018-11-25T23:30:08.145Z,6.30
2018-11-25T23:35:21.021Z,6.20
2018-11-25T23:40:30.445Z,6.00
2018-11-25T23:45:39.828Z,6.20
2018-11-25T23:50:49.351Z,6.20
2018-11-25T23:55:56.151Z,6.20
